sensor_id;sensor_type;location;lat;lon;timestamp;temperature;humidity
4461;DHT22;2243;48.812;9.232;2023-07-31T00:02:20;17.90;99.90
4461;DHT22;2243;48.812;9.232;2023-07-31T00:04:51;17.90;99.90
4461;DHT22;2243;48.812;9.232;2023-07-31T00:07:22;17.90;99.90
4461;DHT22;2243;48.812;9.232;2023-07-31T00:09:53;18.00;99.90
4461;DHT22;2243;48.812;9.232;2023-07-31T00:12:24;18.00;99.90
4461;DHT22;2243;48.812;9.232;2023-07-31T00:14:55;18.00;99.90
4461;DHT22;2243;48.812;9.232;2023-07-31T00:17:26;17.90;99.90
4461;DHT22;2243;48.812;9.232;2023-07-31T00:19:57;17.90;99.90
4461;DHT22;2243;48.812;9.232;2023-07-31T00:22:28;17.80;99.90
4461;DHT22;2243;48.812;9.232;2023-07-31T00:24:59;17.70;99.90
4461;DHT22;2243;48.812;9.232;2023-07-31T00:27:30;17.60;99.90
4461;DHT22;2243;48.812;9.232;2023-07-31T00:30:01;17.60;99.90
4461;DHT22;2243;48.812;9.232;2023-07-31T00:32:32;17.60;99.90
4461;DHT22;2243;48.812;9.232;2023-07-31T00:35:04;17.60;99.90
4461;DHT22;2243;48.812;9.232;2023-07-31T00:37:35;17.70;99.90
4461;DHT22;2243;48.812;9.232;2023-07-31T00:40:07;17.80;99.90
4461;DHT22;2243;48.812;9.232;2023-07-31T00:42:38;17.80;99.90
4461;DHT22;2243;48.812;9.232;2023-07-31T00:45:09;17.70;99.90
4461;DHT22;2243;48.812;9.232;2023-07-31T00:47:40;17.70;99.90
4461;DHT22;2243;48.812;9.232;2023-07-31T00:50:11;17.60;99.90
4461;DHT22;2243;48.812;9.232;2023-07-31T00:52:43;17.50;99.90
4461;DHT22;2243;48.812;9.232;2023-07-31T00:55:14;17.40;99.90
4461;DHT22;2243;48.812;9.232;2023-07-31T00:57:45;17.30;99.90
4461;DHT22;2243;48.812;9.232;2023-07-31T01:00:16;17.20;99.90
4461;DHT22;2243;48.812;9.232;2023-07-31T01:02:49;17.10;99.90
4461;DHT22;2243;48.812;9.232;2023-07-31T01:05:29;17.00;99.90
4461;DHT22;2243;48.812;9.232;2023-07-31T01:08:42;17.00;99.90
4461;DHT22;2243;48.812;9.232;2023-07-31T01:13:58;16.90;99.90
4461;DHT22;2243;48.812;9.232;2023-07-31T01:16:30;17.00;99.90
4461;DHT22;2243;48.812;9.232;2023-07-31T01:19:01;17.00;99.90
4461;DHT22;2243;48.812;9.232;2023-07-31T01:27:17;16.90;99.90
4461;DHT22;2243;48.812;9.232;2023-07-31T01:29:59;16.80;99.90
4461;DHT22;2243;48.812;9.232;2023-07-31T01:32:32;16.80;99.90
4461;DHT22;2243;48.812;9.232;2023-07-31T01:35:04;16.70;99.90
4461;DHT22;2243;48.812;9.232;2023-07-31T01:37:35;16.70;99.90
4461;DHT22;2243;48.812;9.232;2023-07-31T01:40:06;16.70;99.90
4461;DHT22;2243;48.812;9.232;2023-07-31T01:42:38;16.80;99.90
4461;DHT22;2243;48.812;9.232;2023-07-31T01:45:09;16.90;99.90
4461;DHT22;2243;48.812;9.232;2023-07-31T01:47:40;16.80;99.90
4461;DHT22;2243;48.812;9.232;2023-07-31T01:50:12;16.90;99.90
4461;DHT22;2243;48.812;9.232;2023-07-31T01:52:43;16.90;99.90
4461;DHT22;2243;48.812;9.232;2023-07-31T01:55:13;17.00;99.90
4461;DHT22;2243;48.812;9.232;2023-07-31T01:57:45;17.00;99.90
4461;DHT22;2243;48.812;9.232;2023-07-31T02:00:16;16.90;99.90
4461;DHT22;2243;48.812;9.232;2023-07-31T02:02:48;16.90;99.90
4461;DHT22;2243;48.812;9.232;2023-07-31T02:05:19;16.90;99.90
4461;DHT22;2243;48.812;9.232;2023-07-31T02:07:50;16.80;99.90
4461;DHT22;2243;48.812;9.232;2023-07-31T02:10:21;16.80;99.90
4461;DHT22;2243;48.812;9.232;2023-07-31T02:12:51;16.70;99.90
4461;DHT22;2243;48.812;9.232;2023-07-31T02:15:22;16.80;99.90
4461;DHT22;2243;48.812;9.232;2023-07-31T02:17:53;16.80;99.90
4461;DHT22;2243;48.812;9.232;2023-07-31T02:20:24;16.80;99.90
4461;DHT22;2243;48.812;9.232;2023-07-31T02:22:55;16.90;99.90
4461;DHT22;2243;48.812;9.232;2023-07-31T02:25:26;16.70;99.90
4461;DHT22;2243;48.812;9.232;2023-07-31T02:27:57;16.70;99.90
4461;DHT22;2243;48.812;9.232;2023-07-31T02:30:28;16.70;99.90
4461;DHT22;2243;48.812;9.232;2023-07-31T02:32:59;16.80;99.90
4461;DHT22;2243;48.812;9.232;2023-07-31T02:35:30;16.90;99.90
4461;DHT22;2243;48.812;9.232;2023-07-31T02:38:01;16.70;99.90
4461;DHT22;2243;48.812;9.232;2023-07-31T02:40:32;16.70;99.90
4461;DHT22;2243;48.812;9.232;2023-07-31T02:43:03;16.70;99.90
4461;DHT22;2243;48.812;9.232;2023-07-31T02:45:34;16.70;99.90
4461;DHT22;2243;48.812;9.232;2023-07-31T02:48:05;16.60;99.90
4461;DHT22;2243;48.812;9.232;2023-07-31T02:50:36;16.70;99.90
4461;DHT22;2243;48.812;9.232;2023-07-31T02:53:07;16.70;99.90
4461;DHT22;2243;48.812;9.232;2023-07-31T02:55:38;16.70;99.90
4461;DHT22;2243;48.812;9.232;2023-07-31T02:58:09;16.70;99.90
4461;DHT22;2243;48.812;9.232;2023-07-31T03:00:44;16.80;99.90
4461;DHT22;2243;48.812;9.232;2023-07-31T03:03:15;16.80;99.90
4461;DHT22;2243;48.812;9.232;2023-07-31T03:05:46;16.70;99.90
4461;DHT22;2243;48.812;9.232;2023-07-31T03:08:17;16.70;99.90
4461;DHT22;2243;48.812;9.232;2023-07-31T03:10:49;16.80;99.90
4461;DHT22;2243;48.812;9.232;2023-07-31T03:13:19;17.00;99.90
4461;DHT22;2243;48.812;9.232;2023-07-31T03:15:50;17.00;99.90
4461;DHT22;2243;48.812;9.232;2023-07-31T03:18:21;17.00;99.90
4461;DHT22;2243;48.812;9.232;2023-07-31T03:20:52;17.10;99.90
4461;DHT22;2243;48.812;9.232;2023-07-31T03:23:23;17.10;99.90
4461;DHT22;2243;48.812;9.232;2023-07-31T03:25:59;16.90;99.90
4461;DHT22;2243;48.812;9.232;2023-07-31T03:28:32;16.90;99.90
4461;DHT22;2243;48.812;9.232;2023-07-31T03:31:03;16.80;99.90
4461;DHT22;2243;48.812;9.232;2023-07-31T03:33:34;16.80;99.90
4461;DHT22;2243;48.812;9.232;2023-07-31T03:36:04;16.70;99.90
4461;DHT22;2243;48.812;9.232;2023-07-31T03:38:36;16.70;99.90
4461;DHT22;2243;48.812;9.232;2023-07-31T03:41:07;16.60;99.90
4461;DHT22;2243;48.812;9.232;2023-07-31T03:43:38;16.60;99.90
4461;DHT22;2243;48.812;9.232;2023-07-31T03:46:09;16.70;99.90
4461;DHT22;2243;48.812;9.232;2023-07-31T03:48:40;16.70;99.90
4461;DHT22;2243;48.812;9.232;2023-07-31T03:51:11;16.70;99.90
4461;DHT22;2243;48.812;9.232;2023-07-31T03:53:42;16.80;99.90
4461;DHT22;2243;48.812;9.232;2023-07-31T03:56:14;16.80;99.90
4461;DHT22;2243;48.812;9.232;2023-07-31T03:58:45;16.80;99.90
4461;DHT22;2243;48.812;9.232;2023-07-31T04:01:16;16.70;99.90
4461;DHT22;2243;48.812;9.232;2023-07-31T04:03:47;16.50;99.90
4461;DHT22;2243;48.812;9.232;2023-07-31T04:06:18;16.50;99.90
4461;DHT22;2243;48.812;9.232;2023-07-31T04:08:49;16.50;99.90
4461;DHT22;2243;48.812;9.232;2023-07-31T04:11:20;16.50;99.90
4461;DHT22;2243;48.812;9.232;2023-07-31T04:13:51;16.60;99.90
4461;DHT22;2243;48.812;9.232;2023-07-31T04:16:22;16.60;99.90
4461;DHT22;2243;48.812;9.232;2023-07-31T04:18:53;16.60;99.90
4461;DHT22;2243;48.812;9.232;2023-07-31T04:21:24;16.70;99.90
4461;DHT22;2243;48.812;9.232;2023-07-31T04:23:54;16.80;99.90
4461;DHT22;2243;48.812;9.232;2023-07-31T04:26:26;17.00;99.90
4461;DHT22;2243;48.812;9.232;2023-07-31T04:28:57;17.00;99.90
4461;DHT22;2243;48.812;9.232;2023-07-31T04:31:28;17.10;99.90
4461;DHT22;2243;48.812;9.232;2023-07-31T04:34:00;17.10;99.90
4461;DHT22;2243;48.812;9.232;2023-07-31T04:36:31;17.10;99.90
4461;DHT22;2243;48.812;9.232;2023-07-31T04:39:02;17.10;99.90
4461;DHT22;2243;48.812;9.232;2023-07-31T04:41:33;17.00;99.90
4461;DHT22;2243;48.812;9.232;2023-07-31T04:44:04;17.00;99.90
4461;DHT22;2243;48.812;9.232;2023-07-31T04:46:35;17.20;99.90
4461;DHT22;2243;48.812;9.232;2023-07-31T04:49:06;17.20;99.90
4461;DHT22;2243;48.812;9.232;2023-07-31T04:51:37;17.20;99.90
4461;DHT22;2243;48.812;9.232;2023-07-31T04:54:08;17.30;99.90
4461;DHT22;2243;48.812;9.232;2023-07-31T04:56:39;17.40;99.90
4461;DHT22;2243;48.812;9.232;2023-07-31T04:59:10;17.30;99.90
4461;DHT22;2243;48.812;9.232;2023-07-31T05:01:41;17.20;99.90
4461;DHT22;2243;48.812;9.232;2023-07-31T05:04:13;17.30;99.90
4461;DHT22;2243;48.812;9.232;2023-07-31T05:06:45;17.10;99.90
4461;DHT22;2243;48.812;9.232;2023-07-31T05:09:16;17.30;99.90
4461;DHT22;2243;48.812;9.232;2023-07-31T05:11:47;17.40;99.90
4461;DHT22;2243;48.812;9.232;2023-07-31T05:14:18;17.50;99.90
4461;DHT22;2243;48.812;9.232;2023-07-31T05:16:49;17.40;99.90
4461;DHT22;2243;48.812;9.232;2023-07-31T05:19:20;17.40;99.90
4461;DHT22;2243;48.812;9.232;2023-07-31T05:21:50;17.40;99.90
4461;DHT22;2243;48.812;9.232;2023-07-31T05:24:21;17.40;99.90
4461;DHT22;2243;48.812;9.232;2023-07-31T05:26:52;17.40;99.90
4461;DHT22;2243;48.812;9.232;2023-07-31T05:29:23;17.50;99.90
4461;DHT22;2243;48.812;9.232;2023-07-31T05:31:54;17.40;99.90
4461;DHT22;2243;48.812;9.232;2023-07-31T05:34:25;17.50;99.90
4461;DHT22;2243;48.812;9.232;2023-07-31T05:36:56;17.60;99.90
4461;DHT22;2243;48.812;9.232;2023-07-31T05:39:27;17.70;99.90
4461;DHT22;2243;48.812;9.232;2023-07-31T05:41:58;17.70;99.90
4461;DHT22;2243;48.812;9.232;2023-07-31T05:44:29;17.60;99.90
4461;DHT22;2243;48.812;9.232;2023-07-31T05:47:00;17.60;99.90
4461;DHT22;2243;48.812;9.232;2023-07-31T05:49:31;17.80;99.90
4461;DHT22;2243;48.812;9.232;2023-07-31T05:52:02;17.90;99.90
4461;DHT22;2243;48.812;9.232;2023-07-31T05:54:34;18.00;99.90
4461;DHT22;2243;48.812;9.232;2023-07-31T05:57:05;18.00;99.90
4461;DHT22;2243;48.812;9.232;2023-07-31T05:59:36;18.10;99.90
4461;DHT22;2243;48.812;9.232;2023-07-31T06:02:07;18.10;99.90
4461;DHT22;2243;48.812;9.232;2023-07-31T06:04:38;18.20;99.90
4461;DHT22;2243;48.812;9.232;2023-07-31T06:07:09;18.30;99.90
4461;DHT22;2243;48.812;9.232;2023-07-31T06:09:41;18.40;99.90
4461;DHT22;2243;48.812;9.232;2023-07-31T06:12:12;18.40;99.90
4461;DHT22;2243;48.812;9.232;2023-07-31T06:14:43;18.50;99.90
4461;DHT22;2243;48.812;9.232;2023-07-31T06:17:14;18.50;99.90
4461;DHT22;2243;48.812;9.232;2023-07-31T06:19:45;18.60;99.90
4461;DHT22;2243;48.812;9.232;2023-07-31T06:22:16;18.70;99.90
4461;DHT22;2243;48.812;9.232;2023-07-31T06:24:47;18.70;99.90
4461;DHT22;2243;48.812;9.232;2023-07-31T06:27:18;18.70;99.90
4461;DHT22;2243;48.812;9.232;2023-07-31T06:29:48;18.80;99.90
4461;DHT22;2243;48.812;9.232;2023-07-31T06:32:19;18.90;99.90
4461;DHT22;2243;48.812;9.232;2023-07-31T06:34:50;19.00;99.90
4461;DHT22;2243;48.812;9.232;2023-07-31T06:37:21;19.00;99.90
4461;DHT22;2243;48.812;9.232;2023-07-31T06:39:52;19.20;99.90
4461;DHT22;2243;48.812;9.232;2023-07-31T06:42:23;19.30;99.90
4461;DHT22;2243;48.812;9.232;2023-07-31T06:44:55;19.30;99.90
4461;DHT22;2243;48.812;9.232;2023-07-31T06:47:25;19.30;99.90
4461;DHT22;2243;48.812;9.232;2023-07-31T06:49:56;19.40;99.90
4461;DHT22;2243;48.812;9.232;2023-07-31T06:52:27;19.40;99.90
4461;DHT22;2243;48.812;9.232;2023-07-31T06:55:19;19.40;99.90
4461;DHT22;2243;48.812;9.232;2023-07-31T06:57:52;19.50;99.90
4461;DHT22;2243;48.812;9.232;2023-07-31T07:00:24;19.60;99.90
4461;DHT22;2243;48.812;9.232;2023-07-31T07:02:55;19.70;99.90
4461;DHT22;2243;48.812;9.232;2023-07-31T07:05:26;19.70;99.90
4461;DHT22;2243;48.812;9.232;2023-07-31T07:07:58;19.70;99.90
4461;DHT22;2243;48.812;9.232;2023-07-31T07:10:29;19.70;99.90
4461;DHT22;2243;48.812;9.232;2023-07-31T07:13:00;19.80;99.90
4461;DHT22;2243;48.812;9.232;2023-07-31T07:15:30;19.80;99.90
4461;DHT22;2243;48.812;9.232;2023-07-31T07:18:01;19.90;99.90
4461;DHT22;2243;48.812;9.232;2023-07-31T07:20:34;19.90;99.90
4461;DHT22;2243;48.812;9.232;2023-07-31T07:23:05;20.00;99.90
4461;DHT22;2243;48.812;9.232;2023-07-31T07:25:37;20.00;99.90
4461;DHT22;2243;48.812;9.232;2023-07-31T07:28:09;20.10;99.90
4461;DHT22;2243;48.812;9.232;2023-07-31T07:30:40;20.30;99.90
4461;DHT22;2243;48.812;9.232;2023-07-31T07:33:11;20.30;99.90
4461;DHT22;2243;48.812;9.232;2023-07-31T07:35:43;20.30;99.90
4461;DHT22;2243;48.812;9.232;2023-07-31T07:38:14;20.30;99.90
4461;DHT22;2243;48.812;9.232;2023-07-31T07:40:45;20.50;99.90
4461;DHT22;2243;48.812;9.232;2023-07-31T07:43:20;20.50;99.90
4461;DHT22;2243;48.812;9.232;2023-07-31T07:45:51;20.50;99.90
4461;DHT22;2243;48.812;9.232;2023-07-31T07:48:22;20.40;99.90
4461;DHT22;2243;48.812;9.232;2023-07-31T07:50:54;20.40;99.90
4461;DHT22;2243;48.812;9.232;2023-07-31T07:53:25;20.40;99.90
4461;DHT22;2243;48.812;9.232;2023-07-31T07:55:56;20.50;99.90
4461;DHT22;2243;48.812;9.232;2023-07-31T07:58:27;20.60;99.90
4461;DHT22;2243;48.812;9.232;2023-07-31T08:00:58;20.60;99.90
4461;DHT22;2243;48.812;9.232;2023-07-31T08:03:35;20.60;99.90
4461;DHT22;2243;48.812;9.232;2023-07-31T08:06:20;20.70;99.90
4461;DHT22;2243;48.812;9.232;2023-07-31T08:08:57;20.90;99.90
4461;DHT22;2243;48.812;9.232;2023-07-31T08:11:30;20.90;99.60
4461;DHT22;2243;48.812;9.232;2023-07-31T08:14:01;20.90;99.60
4461;DHT22;2243;48.812;9.232;2023-07-31T08:16:33;20.90;99.20
4461;DHT22;2243;48.812;9.232;2023-07-31T08:19:04;20.90;99.40
4461;DHT22;2243;48.812;9.232;2023-07-31T08:21:35;20.80;99.60
4461;DHT22;2243;48.812;9.232;2023-07-31T08:24:06;20.80;99.40
4461;DHT22;2243;48.812;9.232;2023-07-31T08:26:38;20.80;99.20
4461;DHT22;2243;48.812;9.232;2023-07-31T08:29:10;20.80;99.30
4461;DHT22;2243;48.812;9.232;2023-07-31T08:31:41;20.80;99.10
4461;DHT22;2243;48.812;9.232;2023-07-31T08:34:12;20.90;99.40
4461;DHT22;2243;48.812;9.232;2023-07-31T08:36:43;20.90;99.00
4461;DHT22;2243;48.812;9.232;2023-07-31T08:39:14;21.00;99.00
4461;DHT22;2243;48.812;9.232;2023-07-31T08:41:45;21.00;98.90
4461;DHT22;2243;48.812;9.232;2023-07-31T08:44:17;21.10;98.90
4461;DHT22;2243;48.812;9.232;2023-07-31T08:46:49;21.20;98.90
4461;DHT22;2243;48.812;9.232;2023-07-31T08:49:22;21.30;98.90
4461;DHT22;2243;48.812;9.232;2023-07-31T08:51:55;21.30;98.60
4461;DHT22;2243;48.812;9.232;2023-07-31T08:54:29;21.20;98.40
4461;DHT22;2243;48.812;9.232;2023-07-31T08:57:02;21.30;98.80
4461;DHT22;2243;48.812;9.232;2023-07-31T08:59:35;21.30;98.80
4461;DHT22;2243;48.812;9.232;2023-07-31T09:02:08;21.40;98.50
4461;DHT22;2243;48.812;9.232;2023-07-31T09:04:39;21.40;98.30
4461;DHT22;2243;48.812;9.232;2023-07-31T09:07:11;21.50;98.50
4461;DHT22;2243;48.812;9.232;2023-07-31T09:09:45;21.40;98.60
4461;DHT22;2243;48.812;9.232;2023-07-31T09:12:16;21.50;98.50
4461;DHT22;2243;48.812;9.232;2023-07-31T09:14:47;21.60;98.20
4461;DHT22;2243;48.812;9.232;2023-07-31T09:17:39;21.70;97.90
4461;DHT22;2243;48.812;9.232;2023-07-31T09:20:16;21.70;98.10
4461;DHT22;2243;48.812;9.232;2023-07-31T09:22:52;21.80;97.80
4461;DHT22;2243;48.812;9.232;2023-07-31T09:25:24;21.90;97.60
4461;DHT22;2243;48.812;9.232;2023-07-31T09:28:03;21.90;97.20
4461;DHT22;2243;48.812;9.232;2023-07-31T09:30:49;21.90;97.80
4461;DHT22;2243;48.812;9.232;2023-07-31T09:33:21;22.00;97.40
4461;DHT22;2243;48.812;9.232;2023-07-31T09:35:52;22.10;97.40
4461;DHT22;2243;48.812;9.232;2023-07-31T09:38:24;22.10;97.20
4461;DHT22;2243;48.812;9.232;2023-07-31T09:40:55;22.10;97.40
4461;DHT22;2243;48.812;9.232;2023-07-31T09:43:29;22.00;97.40
4461;DHT22;2243;48.812;9.232;2023-07-31T09:46:00;21.90;97.70
4461;DHT22;2243;48.812;9.232;2023-07-31T09:48:31;21.80;97.70
4461;DHT22;2243;48.812;9.232;2023-07-31T09:51:04;21.80;97.60
4461;DHT22;2243;48.812;9.232;2023-07-31T09:53:35;21.70;98.10
4461;DHT22;2243;48.812;9.232;2023-07-31T09:56:06;21.70;97.80
4461;DHT22;2243;48.812;9.232;2023-07-31T09:58:38;21.70;97.90
4461;DHT22;2243;48.812;9.232;2023-07-31T10:01:09;21.90;98.00
4461;DHT22;2243;48.812;9.232;2023-07-31T10:03:40;22.00;98.10
4461;DHT22;2243;48.812;9.232;2023-07-31T10:06:13;22.00;97.60
4461;DHT22;2243;48.812;9.232;2023-07-31T10:08:47;22.00;97.70
4461;DHT22;2243;48.812;9.232;2023-07-31T10:11:23;22.00;97.60
4461;DHT22;2243;48.812;9.232;2023-07-31T10:13:55;22.00;97.30
4461;DHT22;2243;48.812;9.232;2023-07-31T10:16:27;21.90;97.30
4461;DHT22;2243;48.812;9.232;2023-07-31T10:18:58;21.90;97.20
4461;DHT22;2243;48.812;9.232;2023-07-31T10:21:31;21.90;97.30
4461;DHT22;2243;48.812;9.232;2023-07-31T10:24:05;22.00;97.60
4461;DHT22;2243;48.812;9.232;2023-07-31T10:26:37;22.00;97.50
4461;DHT22;2243;48.812;9.232;2023-07-31T10:29:10;22.20;97.10
4461;DHT22;2243;48.812;9.232;2023-07-31T10:31:41;22.10;96.80
4461;DHT22;2243;48.812;9.232;2023-07-31T10:34:13;22.20;97.00
4461;DHT22;2243;48.812;9.232;2023-07-31T10:36:45;22.30;96.90
4461;DHT22;2243;48.812;9.232;2023-07-31T10:39:37;22.40;96.70
4461;DHT22;2243;48.812;9.232;2023-07-31T10:42:11;22.40;96.60
4461;DHT22;2243;48.812;9.232;2023-07-31T10:44:46;22.40;96.60
4461;DHT22;2243;48.812;9.232;2023-07-31T10:47:17;22.30;96.90
4461;DHT22;2243;48.812;9.232;2023-07-31T10:49:48;22.30;97.00
4461;DHT22;2243;48.812;9.232;2023-07-31T10:52:21;22.40;96.80
4461;DHT22;2243;48.812;9.232;2023-07-31T10:55:14;22.40;96.80
4461;DHT22;2243;48.812;9.232;2023-07-31T10:57:49;22.60;96.70
4461;DHT22;2243;48.812;9.232;2023-07-31T11:00:28;22.70;96.70
4461;DHT22;2243;48.812;9.232;2023-07-31T11:03:01;22.70;95.40
4461;DHT22;2243;48.812;9.232;2023-07-31T11:06:01;22.60;95.30
4461;DHT22;2243;48.812;9.232;2023-07-31T11:08:38;22.70;95.80
4461;DHT22;2243;48.812;9.232;2023-07-31T11:11:14;22.90;95.80
4461;DHT22;2243;48.812;9.232;2023-07-31T11:13:52;23.10;95.50
4461;DHT22;2243;48.812;9.232;2023-07-31T11:16:24;23.40;95.60
4461;DHT22;2243;48.812;9.232;2023-07-31T11:18:56;23.50;95.10
4461;DHT22;2243;48.812;9.232;2023-07-31T11:21:28;23.60;95.00
4461;DHT22;2243;48.812;9.232;2023-07-31T11:23:59;23.80;94.60
4461;DHT22;2243;48.812;9.232;2023-07-31T11:26:30;24.50;94.10
4461;DHT22;2243;48.812;9.232;2023-07-31T11:29:01;24.80;93.70
4461;DHT22;2243;48.812;9.232;2023-07-31T11:31:32;25.50;93.30
4461;DHT22;2243;48.812;9.232;2023-07-31T11:34:09;26.10;92.10
4461;DHT22;2243;48.812;9.232;2023-07-31T11:36:40;25.80;92.00
4461;DHT22;2243;48.812;9.232;2023-07-31T11:39:12;25.50;92.30
4461;DHT22;2243;48.812;9.232;2023-07-31T11:41:43;25.20;92.70
4461;DHT22;2243;48.812;9.232;2023-07-31T11:44:14;24.80;92.80
4461;DHT22;2243;48.812;9.232;2023-07-31T11:46:57;24.30;93.20
4461;DHT22;2243;48.812;9.232;2023-07-31T11:49:29;23.90;93.70
4461;DHT22;2243;48.812;9.232;2023-07-31T11:52:00;23.80;94.00
4461;DHT22;2243;48.812;9.232;2023-07-31T11:54:31;23.60;94.20
4461;DHT22;2243;48.812;9.232;2023-07-31T11:57:02;23.50;94.20
4461;DHT22;2243;48.812;9.232;2023-07-31T11:59:34;23.60;94.70
4461;DHT22;2243;48.812;9.232;2023-07-31T12:02:05;23.70;94.30
4461;DHT22;2243;48.812;9.232;2023-07-31T12:04:37;23.70;95.00
4461;DHT22;2243;48.812;9.232;2023-07-31T12:07:09;23.70;94.50
4461;DHT22;2243;48.812;9.232;2023-07-31T12:09:51;23.70;94.40
4461;DHT22;2243;48.812;9.232;2023-07-31T12:12:25;23.70;94.60
4461;DHT22;2243;48.812;9.232;2023-07-31T12:14:56;23.70;94.50
4461;DHT22;2243;48.812;9.232;2023-07-31T12:17:27;23.70;94.40
4461;DHT22;2243;48.812;9.232;2023-07-31T12:19:58;23.60;94.50
4461;DHT22;2243;48.812;9.232;2023-07-31T12:22:31;23.60;94.60
4461;DHT22;2243;48.812;9.232;2023-07-31T12:25:02;23.60;94.90
4461;DHT22;2243;48.812;9.232;2023-07-31T12:27:33;23.70;94.80
4461;DHT22;2243;48.812;9.232;2023-07-31T12:30:06;23.70;94.70
4461;DHT22;2243;48.812;9.232;2023-07-31T12:32:40;23.70;94.50
4461;DHT22;2243;48.812;9.232;2023-07-31T12:35:11;23.70;94.90
4461;DHT22;2243;48.812;9.232;2023-07-31T12:37:42;23.70;94.60
4461;DHT22;2243;48.812;9.232;2023-07-31T12:40:13;23.70;94.70
4461;DHT22;2243;48.812;9.232;2023-07-31T12:42:47;23.70;94.80
4461;DHT22;2243;48.812;9.232;2023-07-31T12:45:18;23.70;94.70
4461;DHT22;2243;48.812;9.232;2023-07-31T12:47:49;23.80;94.80
4461;DHT22;2243;48.812;9.232;2023-07-31T12:50:21;23.80;95.50
4461;DHT22;2243;48.812;9.232;2023-07-31T12:52:53;23.70;94.40
4461;DHT22;2243;48.812;9.232;2023-07-31T12:55:25;23.60;94.40
4461;DHT22;2243;48.812;9.232;2023-07-31T12:57:56;23.50;94.00
4461;DHT22;2243;48.812;9.232;2023-07-31T13:00:28;23.30;94.00
4461;DHT22;2243;48.812;9.232;2023-07-31T13:03:00;23.20;93.90
4461;DHT22;2243;48.812;9.232;2023-07-31T13:05:32;23.20;94.20
4461;DHT22;2243;48.812;9.232;2023-07-31T13:08:03;23.20;94.40
4461;DHT22;2243;48.812;9.232;2023-07-31T13:10:34;23.20;94.40
4461;DHT22;2243;48.812;9.232;2023-07-31T13:13:05;23.20;94.10
4461;DHT22;2243;48.812;9.232;2023-07-31T13:15:36;23.20;94.50
4461;DHT22;2243;48.812;9.232;2023-07-31T13:18:07;23.20;94.50
4461;DHT22;2243;48.812;9.232;2023-07-31T13:20:38;23.30;94.60
4461;DHT22;2243;48.812;9.232;2023-07-31T13:23:09;23.30;94.50
4461;DHT22;2243;48.812;9.232;2023-07-31T13:25:40;23.20;94.90
4461;DHT22;2243;48.812;9.232;2023-07-31T13:28:11;23.30;94.70
4461;DHT22;2243;48.812;9.232;2023-07-31T13:30:42;23.40;94.80
4461;DHT22;2243;48.812;9.232;2023-07-31T13:33:13;23.50;94.70
4461;DHT22;2243;48.812;9.232;2023-07-31T13:36:04;23.60;94.30
4461;DHT22;2243;48.812;9.232;2023-07-31T13:38:35;23.50;94.30
4461;DHT22;2243;48.812;9.232;2023-07-31T13:41:06;23.60;94.20
4461;DHT22;2243;48.812;9.232;2023-07-31T13:43:38;23.70;94.50
4461;DHT22;2243;48.812;9.232;2023-07-31T13:46:09;23.80;94.50
4461;DHT22;2243;48.812;9.232;2023-07-31T13:48:41;24.00;94.20
4461;DHT22;2243;48.812;9.232;2023-07-31T13:51:12;24.10;94.20
4461;DHT22;2243;48.812;9.232;2023-07-31T13:53:43;24.10;94.00
4461;DHT22;2243;48.812;9.232;2023-07-31T13:56:14;24.20;94.00
4461;DHT22;2243;48.812;9.232;2023-07-31T13:58:45;24.20;94.10
4461;DHT22;2243;48.812;9.232;2023-07-31T14:01:16;24.30;93.70
4461;DHT22;2243;48.812;9.232;2023-07-31T14:03:47;24.20;93.80
4461;DHT22;2243;48.812;9.232;2023-07-31T14:06:18;24.20;93.40
4461;DHT22;2243;48.812;9.232;2023-07-31T14:08:49;24.20;93.50
4461;DHT22;2243;48.812;9.232;2023-07-31T14:11:21;24.10;93.70
4461;DHT22;2243;48.812;9.232;2023-07-31T14:13:52;24.10;93.90
4461;DHT22;2243;48.812;9.232;2023-07-31T14:16:23;24.20;93.80
4461;DHT22;2243;48.812;9.232;2023-07-31T14:18:54;24.20;93.80
4461;DHT22;2243;48.812;9.232;2023-07-31T14:21:26;24.30;93.80
4461;DHT22;2243;48.812;9.232;2023-07-31T14:23:57;24.40;93.90
4461;DHT22;2243;48.812;9.232;2023-07-31T14:26:28;24.40;93.70
4461;DHT22;2243;48.812;9.232;2023-07-31T14:28:59;24.50;93.60
4461;DHT22;2243;48.812;9.232;2023-07-31T14:31:30;24.60;93.30
4461;DHT22;2243;48.812;9.232;2023-07-31T14:34:01;24.70;93.40
4461;DHT22;2243;48.812;9.232;2023-07-31T14:36:31;24.80;93.00
4461;DHT22;2243;48.812;9.232;2023-07-31T14:39:02;24.90;93.10
4461;DHT22;2243;48.812;9.232;2023-07-31T14:41:33;24.90;93.20
4461;DHT22;2243;48.812;9.232;2023-07-31T14:44:04;24.80;93.40
4461;DHT22;2243;48.812;9.232;2023-07-31T14:46:35;24.70;93.20
4461;DHT22;2243;48.812;9.232;2023-07-31T14:49:12;24.80;93.70
4461;DHT22;2243;48.812;9.232;2023-07-31T14:51:43;24.90;93.60
4461;DHT22;2243;48.812;9.232;2023-07-31T14:54:14;25.00;93.20
4461;DHT22;2243;48.812;9.232;2023-07-31T14:56:45;25.00;93.20
4461;DHT22;2243;48.812;9.232;2023-07-31T14:59:16;25.10;93.70
4461;DHT22;2243;48.812;9.232;2023-07-31T15:01:47;25.30;93.30
4461;DHT22;2243;48.812;9.232;2023-07-31T15:04:18;25.50;93.50
4461;DHT22;2243;48.812;9.232;2023-07-31T15:06:50;25.60;93.00
4461;DHT22;2243;48.812;9.232;2023-07-31T15:09:22;25.40;92.40
4461;DHT22;2243;48.812;9.232;2023-07-31T15:11:53;25.20;92.50
4461;DHT22;2243;48.812;9.232;2023-07-31T15:14:24;25.20;92.40
4461;DHT22;2243;48.812;9.232;2023-07-31T15:16:58;25.30;92.70
4461;DHT22;2243;48.812;9.232;2023-07-31T15:19:29;25.50;92.60
4461;DHT22;2243;48.812;9.232;2023-07-31T15:22:01;25.60;92.20
4461;DHT22;2243;48.812;9.232;2023-07-31T15:24:33;25.60;92.30
4461;DHT22;2243;48.812;9.232;2023-07-31T15:27:04;25.60;92.10
4461;DHT22;2243;48.812;9.232;2023-07-31T15:29:36;25.60;92.20
4461;DHT22;2243;48.812;9.232;2023-07-31T15:32:08;25.60;91.90
4461;DHT22;2243;48.812;9.232;2023-07-31T15:34:39;25.60;92.00
4461;DHT22;2243;48.812;9.232;2023-07-31T15:37:10;25.80;92.00
4461;DHT22;2243;48.812;9.232;2023-07-31T15:39:41;25.90;91.70
4461;DHT22;2243;48.812;9.232;2023-07-31T15:42:12;25.90;91.70
4461;DHT22;2243;48.812;9.232;2023-07-31T15:44:43;25.90;91.70
4461;DHT22;2243;48.812;9.232;2023-07-31T15:47:14;25.90;91.30
4461;DHT22;2243;48.812;9.232;2023-07-31T15:49:45;25.80;91.30
4461;DHT22;2243;48.812;9.232;2023-07-31T15:52:16;25.80;90.90
4461;DHT22;2243;48.812;9.232;2023-07-31T15:54:47;25.90;91.20
4461;DHT22;2243;48.812;9.232;2023-07-31T15:57:18;26.10;91.20
4461;DHT22;2243;48.812;9.232;2023-07-31T15:59:49;26.10;90.80
4461;DHT22;2243;48.812;9.232;2023-07-31T16:02:20;25.90;91.00
4461;DHT22;2243;48.812;9.232;2023-07-31T16:04:51;26.00;91.40
4461;DHT22;2243;48.812;9.232;2023-07-31T16:07:23;26.20;91.40
4461;DHT22;2243;48.812;9.232;2023-07-31T16:09:54;26.20;90.80
4461;DHT22;2243;48.812;9.232;2023-07-31T16:12:25;26.10;90.90
4461;DHT22;2243;48.812;9.232;2023-07-31T16:14:57;26.20;91.00
4461;DHT22;2243;48.812;9.232;2023-07-31T16:17:27;26.20;90.80
4461;DHT22;2243;48.812;9.232;2023-07-31T16:19:59;26.10;91.10
4461;DHT22;2243;48.812;9.232;2023-07-31T16:22:30;26.20;91.00
4461;DHT22;2243;48.812;9.232;2023-07-31T16:25:01;26.20;91.10
4461;DHT22;2243;48.812;9.232;2023-07-31T16:27:32;26.00;91.30
4461;DHT22;2243;48.812;9.232;2023-07-31T16:30:04;26.10;91.20
4461;DHT22;2243;48.812;9.232;2023-07-31T16:32:35;25.90;91.20
4461;DHT22;2243;48.812;9.232;2023-07-31T16:35:07;25.50;91.40
4461;DHT22;2243;48.812;9.232;2023-07-31T16:37:38;25.30;91.50
4461;DHT22;2243;48.812;9.232;2023-07-31T16:40:10;25.20;91.80
4461;DHT22;2243;48.812;9.232;2023-07-31T16:42:41;25.00;91.90